Dime Box, TX (77853)

7:26 PM CST on February 23, 2017 (GMT -0600)
Eagle's Hope Ranch | | Change Station

Elev 361 ft 30.24 °N, 96.83 °W | Updated 5 seconds ago

Clear
Clear
71.6 °F
Feels Like 77 °F
N
9.2
Wind Variable Wind from SE
Gusts 12.3 mph

Today
High -- | Low -- °F
--% Chance of Precip.
Yesterday
High -- | Low -- °F
Precip. -- in
Pressure 29.62 in
Visibility 10.0 miles
Clouds Clear
Heat Index 77 °F
Dew Point 43 °F
Humidity 36%
Rainfall 0.00 in
Snow Depth Not available.
6:59 AM 6:22 PM
Waning Crescent, 7% visible
METAR K11R 240115Z AUTO 15008G16KT 10SM CLR 23/16 A2962 RMK AO2 T02310156
Pressure 29.62 in
Visibility 10.0 miles
Clouds Clear
Heat Index 77 °F
Dew Point 43 °F
Humidity 36%
Rainfall 0.00 in
Snow Depth Not available.
6:59 AM 6:22 PM
Waning Crescent, 7% visible
METAR K11R 240115Z AUTO 15008G16KT 10SM CLR 23/16 A2962 RMK AO2 T02310156

Get Your Daily Forecast Email!

Thanks for signing up!

Be on the lookout for a verification email in your inbox.

You'll start receiving the daily forecast at 8 AM.

×

10-Day Weather Forecast

Almanac

Astronomy

Feb. 23, 2017 Rise Set
Actual Time
Civil Twilight
Nautical Twilight
Astronomical Twilight
Moon
Length of Visible Light
Length of Day
Tomorrow will be .
, % of the Moon is Illuminated

Today's Extremes

State Highs State Lows

Community

WunderPhotos

Upload Photos

1,962,540 photos uploaded!

WunderBlog® & News

Nearby

Air Quality

  Air Quality AQ Index Pollutant
Not available.

Snow Depth

Station Depth Elevation

Earthquake Activity

City Distance Mag. Time & Date
Minimum magnitude displayed is 2.5.

Coastal Water Temperatures

Place Temperature

Stations

Nearby Weather Stations

Station Location Temp. Windchill Dew Point Humidity Wind Precip. Elev Updated Type
                   

Watches & Warnings

There are currently no watches in effect.